createdAt,value
2019-04-07T00:01:48.564Z,86.60
2019-04-07T00:04:18.916Z,86.90
2019-04-07T00:06:48.214Z,86.70
2019-04-07T00:09:17.686Z,86.40
2019-04-07T00:11:47.070Z,86.40
2019-04-07T00:14:16.731Z,86.10
2019-04-07T00:16:46.157Z,85.50
2019-04-07T00:19:15.741Z,85.40
2019-04-07T00:21:45.554Z,85.40
2019-04-07T00:24:15.985Z,85.30
2019-04-07T00:26:45.445Z,85.40
2019-04-07T00:29:15.543Z,85.50
2019-04-07T00:31:44.979Z,85.70
2019-04-07T00:34:14.261Z,85.90
2019-04-07T00:36:43.827Z,86.20
2019-04-07T00:39:13.159Z,86.20
2019-04-07T00:41:42.944Z,86.70
2019-04-07T00:44:12.658Z,86.70
2019-04-07T00:46:42.250Z,86.70
2019-04-07T00:49:11.868Z,86.70
2019-04-07T00:51:41.171Z,86.50
2019-04-07T00:54:10.469Z,86.40
2019-04-07T00:56:40.129Z,85.80
2019-04-07T00:59:10.701Z,85.70
2019-04-07T01:01:41.453Z,85.50
2019-04-07T01:04:11.148Z,85.10
2019-04-07T01:06:40.659Z,84.80
2019-04-07T01:09:10.750Z,84.80
2019-04-07T01:11:40.403Z,84.50
2019-04-07T01:14:10.308Z,84.50
2019-04-07T01:16:40.736Z,84.70
2019-04-07T01:19:10.121Z,84.90
2019-04-07T01:21:39.413Z,84.50
2019-04-07T01:24:08.791Z,85.10
2019-04-07T01:26:38.444Z,84.90
2019-04-07T01:29:08.050Z,85.00
2019-04-07T01:31:38.002Z,84.90
2019-04-07T01:34:08.706Z,84.40
2019-04-07T01:36:38.139Z,84.50
2019-04-07T01:39:09.184Z,84.30
2019-04-07T01:41:49.562Z,84.20
2019-04-07T01:44:23.541Z,84.10
2019-04-07T01:46:55.973Z,84.10
2019-04-07T01:49:27.238Z,83.80
2019-04-07T01:51:58.241Z,83.70
2019-04-07T01:54:31.982Z,84.00
2019-04-07T01:57:20.146Z,84.00
2019-04-07T02:00:08.341Z,83.90
2019-04-07T02:02:56.706Z,83.90
2019-04-07T02:05:28.735Z,83.90
2019-04-07T02:08:06.626Z,84.00
2019-04-07T02:10:44.797Z,84.20
2019-04-07T02:13:16.472Z,84.10
2019-04-07T02:16:00.236Z,84.40
2019-04-07T02:18:43.541Z,84.50
2019-04-07T02:21:27.438Z,84.80
2019-04-07T02:24:04.787Z,85.10
2019-04-07T02:26:47.597Z,85.20
2019-04-07T02:29:19.677Z,85.70
2019-04-07T02:31:52.206Z,86.00
2019-04-07T02:34:29.900Z,86.70
2019-04-07T02:37:17.581Z,87.00
2019-04-07T02:39:55.022Z,87.30
2019-04-07T02:42:27.517Z,87.30
2019-04-07T02:45:15.175Z,86.50
2019-04-07T02:47:46.798Z,86.40
2019-04-07T02:50:31.723Z,87.50
2019-04-07T02:53:09.533Z,87.40
2019-04-07T02:55:57.258Z,87.60
2019-04-07T02:58:44.723Z,87.40
2019-04-07T03:01:15.654Z,87.60
2019-04-07T03:03:58.607Z,87.00
2019-04-07T03:06:43.056Z,87.20
2019-04-07T03:09:19.098Z,86.90
2019-04-07T03:11:56.512Z,86.60
2019-04-07T03:14:31.468Z,86.50
2019-04-07T03:17:06.685Z,86.20
2019-04-07T03:19:54.159Z,87.30
2019-04-07T03:22:31.171Z,87.20
2019-04-07T03:25:11.210Z,86.60
2019-04-07T03:27:59.191Z,86.50
2019-04-07T03:30:42.518Z,86.80
2019-04-07T03:33:19.253Z,86.70
2019-04-07T03:35:52.863Z,86.90
2019-04-07T03:38:39.305Z,86.70
2019-04-07T03:41:19.667Z,86.90
2019-04-07T03:44:03.332Z,87.60
2019-04-07T03:46:52.464Z,88.00
2019-04-07T03:49:23.620Z,88.00
2019-04-07T03:52:00.821Z,87.70
2019-04-07T03:54:48.314Z,87.30
2019-04-07T03:57:35.256Z,87.30
2019-04-07T04:00:25.483Z,87.30
2019-04-07T04:02:56.898Z,87.50
2019-04-07T04:05:30.911Z,87.70
2019-04-07T04:08:18.294Z,87.90
2019-04-07T04:10:52.696Z,88.10
2019-04-07T04:13:23.790Z,88.40
2019-04-07T04:15:54.720Z,88.60
2019-04-07T04:18:24.300Z,88.60
2019-04-07T04:20:54.291Z,88.10
2019-04-07T04:23:23.671Z,88.60
2019-04-07T04:25:53.723Z,88.60
2019-04-07T04:28:23.678Z,88.80
2019-04-07T04:30:53.790Z,88.80
2019-04-07T04:33:23.528Z,89.20
2019-04-07T04:35:53.832Z,89.10
2019-04-07T04:38:24.170Z,89.20
2019-04-07T04:40:53.645Z,89.10
2019-04-07T04:43:23.460Z,88.80
2019-04-07T04:45:53.454Z,88.60
2019-04-07T04:48:23.774Z,88.50
2019-04-07T04:50:53.373Z,88.60
2019-04-07T04:53:22.761Z,88.50
2019-04-07T04:55:53.571Z,88.70
2019-04-07T04:58:22.977Z,88.90
2019-04-07T05:00:52.506Z,88.90
2019-04-07T05:03:21.839Z,89.30
2019-04-07T05:05:51.263Z,89.60
2019-04-07T05:08:20.707Z,89.20
2019-04-07T05:10:50.022Z,89.80
2019-04-07T05:13:19.863Z,89.80
2019-04-07T05:15:50.118Z,89.80
2019-04-07T05:18:20.010Z,90.10
2019-04-07T05:20:49.920Z,90.50
2019-04-07T05:23:19.633Z,90.80
2019-04-07T05:25:49.172Z,90.90
2019-04-07T05:28:19.122Z,91.20
2019-04-07T05:30:49.007Z,91.20
2019-04-07T05:33:18.819Z,91.20
2019-04-07T05:35:48.367Z,91.40
2019-04-07T05:38:17.775Z,91.00
2019-04-07T05:40:47.519Z,91.10
2019-04-07T05:43:17.377Z,91.30
2019-04-07T05:45:46.793Z,91.30
2019-04-07T05:48:19.232Z,91.10
2019-04-07T05:50:47.275Z,90.70
2019-04-07T05:53:17.072Z,90.80
2019-04-07T05:55:46.878Z,90.80
2019-04-07T05:58:16.863Z,91.10
2019-04-07T06:00:48.617Z,91.10
2019-04-07T06:03:17.704Z,91.00
2019-04-07T06:05:49.158Z,90.90
2019-04-07T06:08:28.831Z,89.80
2019-04-07T06:10:50.014Z,89.00
2019-04-07T06:13:19.979Z,88.90
2019-04-07T06:15:51.383Z,87.50
2019-04-07T06:18:20.698Z,86.80
2019-04-07T06:20:50.501Z,87.00
2019-04-07T06:23:22.095Z,86.40
2019-04-07T06:25:51.098Z,85.90
2019-04-07T06:28:20.712Z,85.10
2019-04-07T06:30:50.043Z,84.50
2019-04-07T06:33:19.927Z,84.10
2019-04-07T06:35:49.912Z,84.70
2019-04-07T06:38:30.330Z,84.50
2019-04-07T06:40:56.521Z,84.20
2019-04-07T06:43:22.912Z,84.80
2019-04-07T06:46:12.896Z,84.60
2019-04-07T06:48:59.312Z,84.60
2019-04-07T06:51:37.204Z,84.80
2019-04-07T06:54:24.598Z,84.50
2019-04-07T06:57:12.315Z,84.30
2019-04-07T06:59:55.855Z,83.50
2019-04-07T07:02:27.000Z,81.60
2019-04-07T07:05:13.603Z,80.80
2019-04-07T07:07:45.843Z,81.20
2019-04-07T07:10:25.921Z,80.80
2019-04-07T07:12:49.605Z,80.50
2019-04-07T07:15:33.793Z,80.00
2019-04-07T07:18:02.524Z,79.60
2019-04-07T07:20:36.330Z,79.60
2019-04-07T07:23:07.683Z,79.70
2019-04-07T07:25:37.270Z,77.70
2019-04-07T07:28:07.598Z,78.20
2019-04-07T07:30:37.841Z,77.20
2019-04-07T07:33:09.700Z,76.50
2019-04-07T07:35:38.824Z,76.50
2019-04-07T07:38:09.208Z,75.10
2019-04-07T07:40:39.609Z,74.70
2019-04-07T07:43:09.713Z,73.10
2019-04-07T07:45:43.617Z,72.50
2019-04-07T07:48:10.923Z,73.30
2019-04-07T07:50:40.774Z,72.40
2019-04-07T07:53:10.512Z,72.50
2019-04-07T07:55:40.200Z,71.50
2019-04-07T07:58:09.540Z,70.10
2019-04-07T08:00:41.549Z,69.80
2019-04-07T08:03:10.277Z,70.10
2019-04-07T08:05:39.670Z,69.30
2019-04-07T08:08:09.308Z,69.50
2019-04-07T08:10:39.708Z,69.60
2019-04-07T08:13:09.279Z,69.00
2019-04-07T08:15:39.307Z,68.30
2019-04-07T08:18:09.726Z,67.10
2019-04-07T08:20:40.927Z,66.80
2019-04-07T08:23:12.182Z,67.30
2019-04-07T08:25:41.364Z,68.40
2019-04-07T08:28:10.911Z,66.90
2019-04-07T08:30:43.909Z,67.50
2019-04-07T08:33:11.195Z,65.70
2019-04-07T08:35:40.825Z,67.10
2019-04-07T08:38:11.013Z,66.20
2019-04-07T08:40:40.686Z,65.60
2019-04-07T08:43:09.978Z,65.50
2019-04-07T08:45:39.841Z,65.90
2019-04-07T08:48:09.134Z,65.60
2019-04-07T08:50:38.718Z,65.70
2019-04-07T08:53:10.500Z,65.80
2019-04-07T08:55:39.183Z,64.50
2019-04-07T08:58:08.529Z,64.80
2019-04-07T09:00:55.989Z,66.00
2019-04-07T09:03:25.439Z,64.30
2019-04-07T09:05:57.358Z,64.10
2019-04-07T09:08:26.253Z,63.50
2019-04-07T09:11:00.365Z,63.60
2019-04-07T09:13:31.667Z,62.40
2019-04-07T09:16:18.631Z,63.10
2019-04-07T09:19:08.340Z,62.10
2019-04-07T09:21:42.852Z,63.50
2019-04-07T09:24:20.420Z,62.70
2019-04-07T09:27:07.978Z,61.80
2019-04-07T09:29:38.902Z,61.30
2019-04-07T09:32:15.675Z,61.80
2019-04-07T09:34:56.277Z,61.30
2019-04-07T09:37:44.535Z,61.90
2019-04-07T09:40:32.076Z,60.90
2019-04-07T09:43:08.489Z,61.00
2019-04-07T09:45:51.859Z,60.70
2019-04-07T09:48:26.788Z,61.40
2019-04-07T09:51:05.107Z,60.60
2019-04-07T09:53:48.803Z,60.70
2019-04-07T09:56:33.725Z,61.50
2019-04-07T09:59:16.769Z,60.40
2019-04-07T10:01:59.334Z,59.70
2019-04-07T10:04:42.474Z,59.00
2019-04-07T10:07:19.460Z,58.50
2019-04-07T10:10:12.302Z,58.20
2019-04-07T10:12:45.893Z,58.20
2019-04-07T10:15:28.710Z,57.30
2019-04-07T10:18:02.319Z,57.90
2019-04-07T10:20:33.641Z,57.70
2019-04-07T10:23:23.182Z,57.40
2019-04-07T10:25:54.933Z,58.00
2019-04-07T10:28:26.487Z,57.40
2019-04-07T10:31:03.457Z,58.00
2019-04-07T10:33:37.830Z,58.00
2019-04-07T10:36:09.289Z,57.00
2019-04-07T10:38:49.714Z,56.70
2019-04-07T10:41:32.728Z,57.10
2019-04-07T10:44:03.903Z,56.70
2019-04-07T10:46:34.899Z,57.30
2019-04-07T10:49:06.778Z,56.70
2019-04-07T10:51:49.985Z,56.80
2019-04-07T10:54:35.927Z,56.30
2019-04-07T10:57:24.509Z,56.60
2019-04-07T10:59:58.386Z,56.30
2019-04-07T11:02:41.485Z,57.70
2019-04-07T11:05:18.665Z,56.90
2019-04-07T11:08:02.470Z,56.90
2019-04-07T11:10:39.120Z,56.90
2019-04-07T11:13:11.737Z,56.80
2019-04-07T11:15:50.979Z,57.30
2019-04-07T11:18:22.673Z,57.60
2019-04-07T11:20:54.515Z,57.30
2019-04-07T11:23:37.452Z,56.10
2019-04-07T11:26:25.318Z,57.40
2019-04-07T11:29:04.936Z,56.10
2019-04-07T11:31:36.871Z,56.00
2019-04-07T11:34:07.866Z,55.80
2019-04-07T11:36:39.687Z,58.50
2019-04-07T11:39:19.988Z,57.10
2019-04-07T11:41:57.413Z,56.90
2019-04-07T11:44:32.226Z,56.50
2019-04-07T11:47:04.985Z,55.30
2019-04-07T11:49:43.903Z,56.80
2019-04-07T11:52:20.371Z,54.80
2019-04-07T11:55:08.565Z,55.00
2019-04-07T11:58:10.731Z,54.00
2019-04-07T12:00:29.913Z,56.60
2019-04-07T12:03:01.377Z,56.80
2019-04-07T12:05:34.983Z,56.70
2019-04-07T12:08:24.594Z,56.60
2019-04-07T12:11:04.755Z,57.20
2019-04-07T12:13:42.871Z,57.40
2019-04-07T12:16:24.723Z,57.10
2019-04-07T12:19:15.036Z,57.50
2019-04-07T12:22:05.502Z,58.20
2019-04-07T12:24:52.200Z,57.20
2019-04-07T12:27:23.996Z,58.20
2019-04-07T12:30:07.825Z,57.50
2019-04-07T12:32:41.718Z,56.80
2019-04-07T12:35:19.528Z,56.90
2019-04-07T12:37:54.193Z,57.00
2019-04-07T12:40:28.929Z,57.80
2019-04-07T12:43:00.338Z,57.60
2019-04-07T12:45:40.239Z,56.90
2019-04-07T12:48:29.986Z,56.60
2019-04-07T12:51:17.599Z,56.70
2019-04-07T12:54:08.162Z,56.60
2019-04-07T12:56:39.131Z,57.20
2019-04-07T12:59:27.195Z,57.80
2019-04-07T13:02:06.031Z,57.40
2019-04-07T13:04:44.600Z,56.60
2019-04-07T13:07:28.474Z,56.80
2019-04-07T13:10:16.906Z,57.20
2019-04-07T13:13:03.725Z,58.40
2019-04-07T13:15:37.798Z,57.70
2019-04-07T13:18:20.266Z,58.30
2019-04-07T13:20:54.784Z,58.50
2019-04-07T13:23:26.586Z,57.10
2019-04-07T13:26:00.826Z,56.40
2019-04-07T13:28:50.336Z,58.50
2019-04-07T13:31:25.719Z,57.80
2019-04-07T13:34:01.200Z,56.50
2019-04-07T13:36:46.316Z,56.90
2019-04-07T13:39:35.842Z,57.20
2019-04-07T13:42:10.991Z,57.10
2019-04-07T13:45:03.525Z,57.20
2019-04-07T13:47:45.951Z,56.60
2019-04-07T13:50:34.411Z,56.20
2019-04-07T13:53:20.752Z,57.10
2019-04-07T13:55:52.065Z,56.70
2019-04-07T13:58:29.207Z,57.90
2019-04-07T14:01:17.999Z,55.60
2019-04-07T14:03:49.190Z,56.60
2019-04-07T14:06:34.002Z,55.90
2019-04-07T14:09:19.157Z,57.20
2019-04-07T14:12:04.798Z,55.60
2019-04-07T14:14:42.771Z,57.10
2019-04-07T14:17:16.752Z,56.30
2019-04-07T14:20:07.067Z,56.60
2019-04-07T14:22:44.339Z,57.30
2019-04-07T14:25:15.566Z,55.70
2019-04-07T14:27:56.616Z,55.60
2019-04-07T14:30:45.512Z,55.60
2019-04-07T14:33:16.645Z,55.60
2019-04-07T14:35:48.917Z,56.40
2019-04-07T14:38:23.968Z,56.40
2019-04-07T14:41:11.723Z,56.90
2019-04-07T14:44:00.583Z,56.30
2019-04-07T14:46:32.708Z,56.80
2019-04-07T14:49:07.660Z,56.80
2019-04-07T14:51:53.703Z,57.10
2019-04-07T14:54:24.854Z,57.60
2019-04-07T14:56:58.712Z,57.90
2019-04-07T14:59:42.598Z,57.80
2019-04-07T15:02:13.794Z,58.00
2019-04-07T15:04:45.523Z,58.70
2019-04-07T15:07:28.453Z,58.10
2019-04-07T15:09:59.868Z,58.30
2019-04-07T15:12:31.360Z,56.70
2019-04-07T15:15:04.658Z,57.10
2019-04-07T15:17:32.987Z,57.70
2019-04-07T15:20:02.820Z,58.30
2019-04-07T15:22:32.472Z,57.20
2019-04-07T15:25:01.761Z,58.00
2019-04-07T15:27:31.588Z,58.30
2019-04-07T15:30:02.253Z,58.90
2019-04-07T15:32:31.650Z,58.90
2019-04-07T15:35:00.939Z,58.80
2019-04-07T15:37:30.359Z,58.60
2019-04-07T15:40:02.686Z,58.20
2019-04-07T15:42:40.347Z,58.90
2019-04-07T15:45:02.443Z,57.40
2019-04-07T15:47:33.409Z,57.70
2019-04-07T15:50:03.176Z,57.80
2019-04-07T15:52:32.886Z,58.80
2019-04-07T15:55:02.170Z,58.90
2019-04-07T15:57:32.524Z,58.50
2019-04-07T16:00:03.956Z,59.40
2019-04-07T16:02:33.554Z,59.10
2019-04-07T16:05:03.718Z,58.80
2019-04-07T16:07:33.142Z,59.00
2019-04-07T16:10:02.504Z,59.00
2019-04-07T16:12:42.494Z,58.20
2019-04-07T16:15:04.106Z,57.90
2019-04-07T16:17:34.697Z,58.50
2019-04-07T16:20:19.914Z,58.60
2019-04-07T16:22:44.263Z,58.70
2019-04-07T16:25:14.344Z,58.90
2019-04-07T16:27:44.564Z,58.70
2019-04-07T16:30:16.391Z,59.00
2019-04-07T16:32:45.630Z,58.50
2019-04-07T16:35:16.614Z,58.40
2019-04-07T16:37:46.548Z,59.20
2019-04-07T16:40:18.413Z,58.50
2019-04-07T16:43:02.646Z,59.10
2019-04-07T16:45:19.208Z,59.30
2019-04-07T16:47:48.661Z,59.40
2019-04-07T16:50:20.289Z,59.30
2019-04-07T16:52:49.709Z,59.30
2019-04-07T16:55:28.279Z,59.70
2019-04-07T16:58:01.041Z,59.80
2019-04-07T17:00:28.839Z,60.00
2019-04-07T17:03:00.089Z,59.80
2019-04-07T17:05:30.245Z,59.70
2019-04-07T17:07:59.947Z,60.00
2019-04-07T17:10:32.422Z,60.00
2019-04-07T17:13:05.333Z,60.20
2019-04-07T17:15:32.784Z,60.40
2019-04-07T17:18:07.197Z,60.10
2019-04-07T17:20:37.736Z,60.80
2019-04-07T17:23:07.542Z,60.80
2019-04-07T17:25:37.586Z,61.10
2019-04-07T17:28:07.850Z,61.20
2019-04-07T17:30:55.876Z,60.60
2019-04-07T17:33:29.511Z,60.50
2019-04-07T17:35:59.243Z,60.70
2019-04-07T17:38:48.807Z,60.60
2019-04-07T17:41:18.388Z,61.10
2019-04-07T17:43:54.403Z,61.20
2019-04-07T17:46:37.362Z,61.40
2019-04-07T17:49:14.719Z,61.50
2019-04-07T17:52:02.087Z,62.30
2019-04-07T17:54:36.555Z,63.40
2019-04-07T17:57:08.879Z,65.10
2019-04-07T17:59:44.497Z,65.10
2019-04-07T18:02:28.706Z,66.20
2019-04-07T18:05:00.248Z,66.00
2019-04-07T18:07:38.136Z,65.20
2019-04-07T18:10:12.341Z,65.20
2019-04-07T18:12:49.218Z,67.20
2019-04-07T18:15:36.661Z,68.10
2019-04-07T18:18:23.574Z,68.90
2019-04-07T18:20:52.927Z,69.20
2019-04-07T18:23:27.748Z,69.90
2019-04-07T18:26:09.906Z,69.70
2019-04-07T18:28:43.339Z,70.10
2019-04-07T18:31:22.050Z,70.10
2019-04-07T18:34:09.984Z,69.40
2019-04-07T18:36:52.966Z,70.40
2019-04-07T18:39:30.201Z,70.90
2019-04-07T18:42:16.524Z,70.90
2019-04-07T18:44:55.405Z,71.50
2019-04-07T18:47:32.489Z,71.40
2019-04-07T18:50:07.169Z,72.00
2019-04-07T18:52:54.487Z,72.10
2019-04-07T18:55:28.462Z,72.20
2019-04-07T18:58:06.362Z,72.50
2019-04-07T19:00:53.778Z,72.70
2019-04-07T19:03:41.818Z,72.60
2019-04-07T19:06:16.672Z,73.00
2019-04-07T19:08:56.195Z,73.10
2019-04-07T19:11:41.626Z,73.10
2019-04-07T19:14:31.495Z,73.70
2019-04-07T19:16:49.257Z,74.00
2019-04-07T19:19:35.515Z,74.40
2019-04-07T19:22:22.851Z,74.00
2019-04-07T19:24:56.692Z,74.50
2019-04-07T19:27:31.418Z,74.90
2019-04-07T19:30:20.815Z,75.00
2019-04-07T19:33:00.496Z,75.30
2019-04-07T19:35:37.715Z,75.70
2019-04-07T19:38:06.844Z,75.60
2019-04-07T19:40:38.067Z,75.60
2019-04-07T19:43:15.078Z,75.50
2019-04-07T19:45:56.200Z,75.70
2019-04-07T19:48:28.806Z,76.00
2019-04-07T19:51:29.380Z,76.40
2019-04-07T19:54:19.126Z,76.70
2019-04-07T19:57:05.487Z,76.60
2019-04-07T19:59:39.255Z,76.20
2019-04-07T20:02:25.580Z,76.60
2019-04-07T20:05:05.830Z,77.10
2019-04-07T20:07:46.263Z,77.40
2019-04-07T20:10:27.017Z,77.60
2019-04-07T20:13:15.571Z,77.40
2019-04-07T20:15:57.726Z,78.20
2019-04-07T20:18:35.311Z,78.20
2019-04-07T20:21:13.135Z,78.20
2019-04-07T20:24:01.479Z,78.30
2019-04-07T20:26:50.990Z,78.60
2019-04-07T20:29:38.097Z,78.70
2019-04-07T20:32:26.041Z,79.20
2019-04-07T20:34:59.547Z,79.40
2019-04-07T20:37:30.716Z,79.50
2019-04-07T20:40:10.696Z,79.60
2019-04-07T20:42:46.383Z,79.80
2019-04-07T20:45:19.257Z,79.60
2019-04-07T20:47:56.719Z,79.60
2019-04-07T20:50:35.860Z,79.90
2019-04-07T20:53:26.383Z,79.80
2019-04-07T20:55:56.241Z,79.50
2019-04-07T20:58:46.420Z,79.30
2019-04-07T21:01:10.999Z,79.70
2019-04-07T21:03:49.613Z,79.30
2019-04-07T21:06:25.341Z,79.20
2019-04-07T21:09:09.919Z,78.10
2019-04-07T21:11:45.122Z,78.40
2019-04-07T21:14:17.186Z,77.90
2019-04-07T21:17:01.349Z,79.20
2019-04-07T21:19:38.314Z,78.40
2019-04-07T21:22:20.477Z,78.90
2019-04-07T21:24:57.191Z,79.60
2019-04-07T21:27:33.888Z,79.80
2019-04-07T21:30:06.722Z,80.30
2019-04-07T21:32:37.659Z,80.30
2019-04-07T21:35:11.291Z,80.50
2019-04-07T21:37:48.962Z,80.70
2019-04-07T21:40:40.271Z,80.90
2019-04-07T21:43:27.191Z,80.90
2019-04-07T21:46:13.345Z,80.90
2019-04-07T21:49:02.621Z,81.30
2019-04-07T21:51:36.269Z,81.90
2019-04-07T21:54:07.718Z,81.90
2019-04-07T21:56:47.959Z,82.20
2019-04-07T21:59:26.554Z,82.30
2019-04-07T22:01:55.083Z,81.80
2019-04-07T22:04:28.567Z,82.10
2019-04-07T22:06:59.605Z,82.10
2019-04-07T22:09:50.723Z,82.10
2019-04-07T22:12:18.837Z,82.10
2019-04-07T22:14:48.601Z,81.80
2019-04-07T22:17:17.891Z,81.90
2019-04-07T22:19:47.895Z,81.80
2019-04-07T22:22:18.506Z,82.00
2019-04-07T22:24:47.911Z,82.30
2019-04-07T22:27:21.215Z,82.30
2019-04-07T22:29:48.970Z,82.60
2019-04-07T22:32:21.558Z,82.80
2019-04-07T22:34:50.379Z,83.10
2019-04-07T22:37:22.026Z,83.10
2019-04-07T22:39:52.756Z,83.20
2019-04-07T22:42:22.565Z,83.40
2019-04-07T22:44:54.277Z,83.60
2019-04-07T22:47:23.635Z,83.60
2019-04-07T22:49:53.052Z,83.90
2019-04-07T22:52:22.582Z,84.00
2019-04-07T22:54:51.965Z,83.90
2019-04-07T22:57:21.902Z,84.20
2019-04-07T22:59:51.334Z,84.20
2019-04-07T23:02:20.631Z,83.90
2019-04-07T23:04:50.326Z,84.10
2019-04-07T23:07:20.257Z,83.10
2019-04-07T23:09:49.694Z,83.40
2019-04-07T23:12:19.415Z,83.20
2019-04-07T23:14:49.564Z,82.30
2019-04-07T23:17:19.651Z,82.50
2019-04-07T23:19:49.269Z,81.60
2019-04-07T23:22:18.799Z,81.00
2019-04-07T23:24:48.074Z,80.90
2019-04-07T23:27:18.122Z,80.90
2019-04-07T23:29:47.603Z,80.80
2019-04-07T23:32:17.200Z,80.80
2019-04-07T23:34:47.747Z,80.60
2019-04-07T23:37:17.087Z,80.30
2019-04-07T23:39:46.375Z,80.70
2019-04-07T23:42:15.784Z,80.70
2019-04-07T23:44:45.763Z,80.50
2019-04-07T23:47:16.212Z,80.50
2019-04-07T23:49:45.547Z,80.60
2019-04-07T23:52:15.087Z,81.00
2019-04-07T23:54:44.375Z,81.20
2019-04-07T23:57:13.899Z,81.20
2019-04-07T23:59:44.299Z,81.30
